createdAt,value
2018-07-15T00:00:09.658Z,71.03
2018-07-15T00:01:09.621Z,71.61
2018-07-15T00:02:09.593Z,70.55
2018-07-15T00:03:09.556Z,70.45
2018-07-15T00:04:09.525Z,71.03
2018-07-15T00:05:09.492Z,71.89
2018-07-15T00:06:09.469Z,71.51
2018-07-15T00:07:09.429Z,71.70
2018-07-15T00:08:09.395Z,71.80
2018-07-15T00:09:09.364Z,72.47
2018-07-15T00:10:09.367Z,72.66
2018-07-15T00:11:09.302Z,72.37
2018-07-15T00:12:09.327Z,72.37
2018-07-15T00:13:09.238Z,72.47
2018-07-15T00:14:09.204Z,72.75
2018-07-15T00:15:09.178Z,72.95
2018-07-15T00:16:09.157Z,72.75
2018-07-15T00:17:09.111Z,72.75
2018-07-15T00:18:09.089Z,72.81
2018-07-15T00:19:09.044Z,73.00
2018-07-15T00:20:09.020Z,72.95
2018-07-15T00:21:08.984Z,73.24
2018-07-15T00:22:08.953Z,72.95
2018-07-15T00:23:08.918Z,72.37
2018-07-15T00:24:08.927Z,72.47
2018-07-15T00:25:08.861Z,72.63
2018-07-15T00:26:08.848Z,72.24
2018-07-15T00:27:08.788Z,72.72
2018-07-15T00:28:08.795Z,72.95
2018-07-15T00:29:08.750Z,72.72
2018-07-15T00:30:08.695Z,72.81
2018-07-15T00:31:08.659Z,73.10
2018-07-15T00:32:08.639Z,73.30
2018-07-15T00:33:08.624Z,73.68
2018-07-15T00:34:08.573Z,74.16
2018-07-15T00:35:08.544Z,74.26
2018-07-15T00:36:08.504Z,73.97
2018-07-15T00:37:08.476Z,74.06
2018-07-15T00:38:08.443Z,74.26
2018-07-15T00:39:08.406Z,73.97
2018-07-15T00:40:08.376Z,75.02
2018-07-15T00:41:08.354Z,74.54
2018-07-15T00:42:08.305Z,74.73
2018-07-15T00:43:08.279Z,74.64
2018-07-15T00:44:08.244Z,74.83
2018-07-15T00:45:08.222Z,74.73
2018-07-15T00:46:08.184Z,74.54
2018-07-15T00:47:08.160Z,74.64
2018-07-15T00:48:08.119Z,75.12
2018-07-15T00:49:08.111Z,75.50
2018-07-15T00:50:08.061Z,75.21
2018-07-15T00:51:08.034Z,75.40
2018-07-15T00:52:08.004Z,75.31
2018-07-15T00:53:07.961Z,75.70
2018-07-15T00:54:07.940Z,75.65
2018-07-15T00:55:07.928Z,75.75
2018-07-15T00:56:07.915Z,75.75
2018-07-15T00:57:07.829Z,76.52
2018-07-15T00:58:07.797Z,75.75
2018-07-15T00:59:07.777Z,75.65
2018-07-15T01:00:07.733Z,75.95
2018-07-15T01:01:07.701Z,75.75
2018-07-15T01:02:07.689Z,76.23
2018-07-15T01:03:07.668Z,75.95
2018-07-15T01:04:07.603Z,76.42
2018-07-15T01:05:07.621Z,76.23
2018-07-15T01:06:07.558Z,75.95
2018-07-15T01:07:07.508Z,76.14
2018-07-15T01:08:07.471Z,76.90
2018-07-15T01:09:07.446Z,77.19
2018-07-15T01:10:07.436Z,77.76
2018-07-15T01:11:07.395Z,78.34
2018-07-15T01:12:07.372Z,77.95
2018-07-15T01:13:07.317Z,77.82
2018-07-15T01:14:07.282Z,77.95
2018-07-15T01:15:07.247Z,77.73
2018-07-15T01:16:07.215Z,77.15
2018-07-15T01:17:07.186Z,77.25
2018-07-15T01:18:07.166Z,77.44
2018-07-15T01:19:07.123Z,77.29
2018-07-15T01:20:07.089Z,77.53
2018-07-15T01:21:07.065Z,77.67
2018-07-15T01:22:07.026Z,77.58
2018-07-15T01:23:07.010Z,77.53
2018-07-15T01:24:06.969Z,78.44
2018-07-15T01:25:06.927Z,78.20
2018-07-15T01:26:06.924Z,78.44
2018-07-15T01:27:06.869Z,78.44
2018-07-15T01:28:06.834Z,77.92
2018-07-15T01:29:06.801Z,78.40
2018-07-15T01:30:06.769Z,78.20
2018-07-15T01:31:07.176Z,78.20
2018-07-15T01:32:06.704Z,77.73
2018-07-15T01:33:06.672Z,77.92
2018-07-15T01:34:06.637Z,78.88
2018-07-15T01:35:06.634Z,78.02
2018-07-15T01:36:06.603Z,78.02
2018-07-15T01:37:07.343Z,78.20
2018-07-15T01:38:06.508Z,78.49
2018-07-15T01:39:06.479Z,79.26
2018-07-15T01:40:06.456Z,78.97
2018-07-15T01:41:06.436Z,79.36
2018-07-15T01:42:06.380Z,79.26
2018-07-15T01:43:06.511Z,79.16
2018-07-15T01:44:06.323Z,79.26
2018-07-15T01:45:06.285Z,79.16
2018-07-15T01:46:06.274Z,79.16
2018-07-15T01:47:06.217Z,79.07
2018-07-15T01:48:06.182Z,79.36
2018-07-15T01:49:06.156Z,77.88
2018-07-15T01:50:06.129Z,78.30
2018-07-15T01:51:06.117Z,78.30
2018-07-15T01:52:06.089Z,79.32
2018-07-15T01:53:06.027Z,79.89
2018-07-15T01:54:05.990Z,79.60
2018-07-15T01:55:05.954Z,80.18
2018-07-15T01:56:05.922Z,80.37
2018-07-15T01:57:05.896Z,80.27
2018-07-15T01:58:05.861Z,80.76
2018-07-15T01:59:05.829Z,80.94
2018-07-15T02:00:05.798Z,80.66
2018-07-15T02:01:05.765Z,80.37
2018-07-15T02:02:05.736Z,80.76
2018-07-15T02:03:05.699Z,80.76
2018-07-15T02:04:05.675Z,80.94
2018-07-15T02:05:05.648Z,81.13
2018-07-15T02:06:05.602Z,81.23
2018-07-15T02:07:05.580Z,81.52
2018-07-15T02:08:05.531Z,81.33
2018-07-15T02:09:05.498Z,81.33
2018-07-15T02:10:05.494Z,81.13
2018-07-15T02:11:05.437Z,81.18
2018-07-15T02:12:05.411Z,81.37
2018-07-15T02:13:05.373Z,81.43
2018-07-15T02:14:05.338Z,81.90
2018-07-15T02:15:05.305Z,81.81
2018-07-15T02:16:05.274Z,81.71
2018-07-15T02:17:05.240Z,82.00
2018-07-15T02:18:05.260Z,82.09
2018-07-15T02:19:05.179Z,82.00
2018-07-15T02:20:05.167Z,82.57
2018-07-15T02:21:05.122Z,82.86
2018-07-15T02:22:05.082Z,82.96
2018-07-15T02:23:05.052Z,82.76
2018-07-15T02:24:05.062Z,82.76
2018-07-15T02:25:04.992Z,83.25
2018-07-15T02:26:04.950Z,83.25
2018-07-15T02:27:04.915Z,83.63
2018-07-15T02:28:04.879Z,83.82
2018-07-15T02:29:04.854Z,82.86
2018-07-15T02:30:04.822Z,82.76
2018-07-15T02:31:04.787Z,83.25
2018-07-15T02:32:04.754Z,82.96
2018-07-15T02:33:04.720Z,83.34
2018-07-15T02:34:04.686Z,83.44
2018-07-15T02:35:04.660Z,83.82
2018-07-15T02:36:04.621Z,83.92
2018-07-15T02:37:04.602Z,83.72
2018-07-15T02:38:04.558Z,83.82
2018-07-15T02:39:04.530Z,83.92
2018-07-15T02:40:04.492Z,84.01
2018-07-15T02:41:04.461Z,84.01
2018-07-15T02:42:04.421Z,83.92
2018-07-15T02:43:04.391Z,84.01
2018-07-15T02:44:04.361Z,83.63
2018-07-15T02:45:04.326Z,84.20
2018-07-15T02:46:04.297Z,83.82
2018-07-15T02:47:04.264Z,84.49
2018-07-15T02:48:04.226Z,84.35
2018-07-15T02:49:04.200Z,84.45
2018-07-15T02:50:04.168Z,84.49
2018-07-15T02:51:04.143Z,84.30
2018-07-15T02:52:04.115Z,84.35
2018-07-15T02:53:04.094Z,85.06
2018-07-15T02:54:04.033Z,84.11
2018-07-15T02:55:04.007Z,84.39
2018-07-15T02:56:03.984Z,84.35
2018-07-15T02:57:03.943Z,84.26
2018-07-15T02:58:03.917Z,84.35
2018-07-15T02:59:03.890Z,85.02
2018-07-15T03:00:03.846Z,84.83
2018-07-15T03:01:03.813Z,85.02
2018-07-15T03:02:03.787Z,85.21
2018-07-15T03:03:03.749Z,85.12
2018-07-15T03:04:03.713Z,84.35
2018-07-15T03:05:03.681Z,83.87
2018-07-15T03:06:03.640Z,84.55
2018-07-15T03:07:03.606Z,83.49
2018-07-15T03:08:03.581Z,84.55
2018-07-15T03:09:03.553Z,86.08
2018-07-15T03:10:03.514Z,85.79
2018-07-15T03:11:03.497Z,86.84
2018-07-15T03:12:03.448Z,87.66
2018-07-15T03:13:03.424Z,87.85
2018-07-15T03:14:03.382Z,88.13
2018-07-15T03:15:03.350Z,88.52
2018-07-15T03:16:03.329Z,88.62
2018-07-15T03:17:03.281Z,88.52
2018-07-15T03:18:03.269Z,88.43
2018-07-15T03:19:03.211Z,89.19
2018-07-15T03:20:03.194Z,89.19
2018-07-15T03:21:03.150Z,89.00
2018-07-15T03:22:03.135Z,89.00
2018-07-15T03:23:03.082Z,89.76
2018-07-15T03:24:03.052Z,90.05
2018-07-15T03:25:03.035Z,89.67
2018-07-15T03:26:02.986Z,90.24
2018-07-15T03:27:02.955Z,90.82
2018-07-15T03:28:02.921Z,90.67
2018-07-15T03:29:02.911Z,91.16
2018-07-15T03:30:02.861Z,91.53
2018-07-15T03:31:02.826Z,91.35
2018-07-15T03:32:02.796Z,91.44
2018-07-15T03:33:02.754Z,91.73
2018-07-15T03:34:02.765Z,91.44
2018-07-15T03:35:02.707Z,91.73
2018-07-15T03:36:02.657Z,91.63
2018-07-15T03:37:02.641Z,91.73
2018-07-15T03:38:02.594Z,91.73
2018-07-15T03:39:02.569Z,91.53
2018-07-15T03:40:02.519Z,91.83
2018-07-15T03:41:02.488Z,92.11
2018-07-15T03:42:02.466Z,92.97
2018-07-15T03:43:02.433Z,93.26
2018-07-15T03:44:02.393Z,93.74
2018-07-15T03:45:02.387Z,93.16
2018-07-15T03:46:02.323Z,93.84
2018-07-15T03:47:02.293Z,93.74
2018-07-15T03:48:02.266Z,93.84
2018-07-15T03:49:02.227Z,93.74
2018-07-15T03:50:02.203Z,93.55
2018-07-15T03:51:02.157Z,94.41
2018-07-15T03:52:02.154Z,94.79
2018-07-15T03:53:02.094Z,94.79
2018-07-15T03:54:02.059Z,95.36
2018-07-15T03:55:02.024Z,95.07
2018-07-15T03:56:01.994Z,95.17
2018-07-15T03:57:01.958Z,95.17
2018-07-15T03:58:01.946Z,95.17
2018-07-15T03:59:01.948Z,94.98
2018-07-15T04:00:01.869Z,94.70
2018-07-15T04:01:01.827Z,94.79
2018-07-15T04:02:01.926Z,94.21
2018-07-15T04:03:01.765Z,94.21
2018-07-15T04:04:01.732Z,94.45
2018-07-15T04:05:01.698Z,93.59
2018-07-15T04:06:01.673Z,93.88
2018-07-15T04:07:01.631Z,93.21
2018-07-15T04:08:01.590Z,93.59
2018-07-15T04:09:01.715Z,93.50
2018-07-15T04:10:01.537Z,93.02
2018-07-15T04:11:01.503Z,93.21
2018-07-15T04:12:01.465Z,92.73
2018-07-15T04:13:01.429Z,92.44
2018-07-15T04:14:01.395Z,91.77
2018-07-15T04:15:01.365Z,91.63
2018-07-15T04:16:01.358Z,92.01
2018-07-15T04:17:01.306Z,91.34
2018-07-15T04:18:01.262Z,91.63
2018-07-15T04:19:01.230Z,91.15
2018-07-15T04:20:01.204Z,91.05
2018-07-15T04:21:01.176Z,91.05
2018-07-15T04:22:01.138Z,91.82
2018-07-15T04:23:01.099Z,91.15
2018-07-15T04:24:01.078Z,91.34
2018-07-15T04:25:01.033Z,90.96
2018-07-15T04:26:01.015Z,91.34
2018-07-15T04:27:00.968Z,90.77
2018-07-15T04:28:00.932Z,89.95
2018-07-15T04:29:00.904Z,90.62
2018-07-15T04:30:00.874Z,90.72
2018-07-15T04:31:00.834Z,90.53
2018-07-15T04:32:00.816Z,90.53
2018-07-15T04:33:00.769Z,90.53
2018-07-15T04:34:00.737Z,90.62
2018-07-15T04:35:00.707Z,90.72
2018-07-15T04:36:00.683Z,89.86
2018-07-15T04:37:00.650Z,89.51
2018-07-15T04:38:00.688Z,89.90
2018-07-15T04:39:00.582Z,89.04
2018-07-15T04:40:00.575Z,88.84
2018-07-15T04:41:00.511Z,89.13
2018-07-15T04:42:00.516Z,88.65
2018-07-15T04:43:00.449Z,89.42
2018-07-15T04:44:00.424Z,88.65
2018-07-15T04:45:00.390Z,88.37
2018-07-15T04:46:00.348Z,87.55
2018-07-15T04:47:00.321Z,87.26
2018-07-15T04:48:00.286Z,87.16
2018-07-15T04:49:00.256Z,86.68
2018-07-15T04:50:00.218Z,86.88
2018-07-15T04:51:00.185Z,86.30
2018-07-15T04:52:00.154Z,85.58
2018-07-15T04:53:00.132Z,85.48
2018-07-15T04:54:00.096Z,85.58
2018-07-15T04:55:00.063Z,85.28
2018-07-15T04:56:00.032Z,84.91
2018-07-15T04:56:59.999Z,84.61
2018-07-15T04:57:59.967Z,84.42
2018-07-15T04:58:59.945Z,83.70
2018-07-15T04:59:59.899Z,83.31
2018-07-15T05:00:59.865Z,82.93
2018-07-15T05:01:59.865Z,81.87
2018-07-15T05:03:00.052Z,82.20
2018-07-15T05:03:59.778Z,82.20
2018-07-15T05:04:59.742Z,81.34
2018-07-15T05:05:59.711Z,81.53
2018-07-15T05:06:59.677Z,81.43
2018-07-15T05:07:59.661Z,80.76
2018-07-15T05:08:59.624Z,80.96
2018-07-15T05:09:59.579Z,81.15
2018-07-15T05:10:59.549Z,81.92
2018-07-15T05:11:59.520Z,81.38
2018-07-15T05:12:59.486Z,81.38
2018-07-15T05:13:59.469Z,81.19
2018-07-15T05:14:59.426Z,80.99
2018-07-15T05:15:59.433Z,80.51
2018-07-15T05:16:59.365Z,80.84
2018-07-15T05:17:59.331Z,80.65
2018-07-15T05:18:59.302Z,80.27
2018-07-15T05:19:59.270Z,79.69
2018-07-15T05:20:59.236Z,77.86
2018-07-15T05:21:59.215Z,76.75
2018-07-15T05:22:59.179Z,76.46
2018-07-15T05:23:59.144Z,76.36
2018-07-15T05:24:59.179Z,75.98
2018-07-15T05:25:59.085Z,75.69
2018-07-15T05:26:59.048Z,75.98
2018-07-15T05:27:59.023Z,76.17
2018-07-15T05:28:58.986Z,75.98
2018-07-15T05:29:58.962Z,76.36
2018-07-15T05:30:58.923Z,76.07
2018-07-15T05:31:58.893Z,75.79
2018-07-15T05:32:58.864Z,75.54
2018-07-15T05:33:58.835Z,75.69
2018-07-15T05:34:58.873Z,76.01
2018-07-15T05:35:59.760Z,75.73
2018-07-15T05:36:58.739Z,75.63
2018-07-15T05:37:58.982Z,74.67
2018-07-15T05:38:58.676Z,74.41
2018-07-15T05:39:58.644Z,73.74
2018-07-15T05:40:58.628Z,73.55
2018-07-15T05:41:58.586Z,73.20
2018-07-15T05:42:58.557Z,72.63
2018-07-15T05:43:58.522Z,72.14
2018-07-15T05:44:58.498Z,73.10
2018-07-15T05:45:58.462Z,73.39
2018-07-15T05:46:58.433Z,73.01
2018-07-15T05:47:58.413Z,71.70
2018-07-15T05:48:58.371Z,71.12
2018-07-15T05:49:58.342Z,72.08
2018-07-15T05:50:58.314Z,70.25
2018-07-15T05:51:58.346Z,69.87
2018-07-15T05:52:58.254Z,71.12
2018-07-15T05:53:58.251Z,70.25
2018-07-15T05:54:58.193Z,69.32
2018-07-15T05:55:58.159Z,68.74
2018-07-15T05:56:58.132Z,68.65
2018-07-15T05:57:58.119Z,67.40
2018-07-15T05:58:58.075Z,67.68
2018-07-15T05:59:58.047Z,67.14
2018-07-15T06:00:58.012Z,67.52
2018-07-15T06:01:57.979Z,65.30
2018-07-15T06:02:57.971Z,65.78
2018-07-15T06:03:57.931Z,66.17
2018-07-15T06:04:57.887Z,64.95
2018-07-15T06:05:57.857Z,64.47
2018-07-15T06:06:57.831Z,64.86
2018-07-15T06:07:57.800Z,64.66
2018-07-15T06:08:57.773Z,63.89
2018-07-15T06:09:57.751Z,63.53
2018-07-15T06:10:57.714Z,62.86
2018-07-15T06:11:57.683Z,62.47
2018-07-15T06:12:57.649Z,61.99
2018-07-15T06:13:57.626Z,61.80
2018-07-15T06:14:57.594Z,62.21
2018-07-15T06:15:57.563Z,61.54
2018-07-15T06:16:57.538Z,61.63
2018-07-15T06:17:57.739Z,61.63
2018-07-15T06:18:57.482Z,62.34
2018-07-15T06:19:57.452Z,62.05
2018-07-15T06:20:57.419Z,62.15
2018-07-15T06:21:57.393Z,60.50
2018-07-15T06:22:57.365Z,60.41
2018-07-15T06:23:57.330Z,60.31
2018-07-15T06:24:57.303Z,60.31
2018-07-15T06:25:57.271Z,60.41
2018-07-15T06:26:57.242Z,60.79
2018-07-15T06:27:57.210Z,59.15
2018-07-15T06:28:57.187Z,59.44
2018-07-15T06:29:57.163Z,60.69
2018-07-15T06:30:57.175Z,59.56
2018-07-15T06:31:57.175Z,59.08
2018-07-15T06:32:57.075Z,58.70
2018-07-15T06:33:57.041Z,58.70
2018-07-15T06:34:57.014Z,58.60
2018-07-15T06:35:56.983Z,58.50
2018-07-15T06:36:56.972Z,59.47
2018-07-15T06:37:56.939Z,59.18
2018-07-15T06:38:56.900Z,59.31
2018-07-15T06:39:56.870Z,58.92
2018-07-15T06:40:56.844Z,58.63
2018-07-15T06:41:56.815Z,58.92
2018-07-15T06:42:56.788Z,57.46
2018-07-15T06:43:56.763Z,57.66
2018-07-15T06:44:56.727Z,58.14
2018-07-15T06:45:56.697Z,58.14
2018-07-15T06:46:56.672Z,57.59
2018-07-15T06:47:56.642Z,57.59
2018-07-15T06:48:56.617Z,56.62
2018-07-15T06:49:56.584Z,56.04
2018-07-15T06:50:56.632Z,56.24
2018-07-15T06:51:56.526Z,56.94
2018-07-15T06:52:56.500Z,56.65
2018-07-15T06:53:56.538Z,57.01
2018-07-15T06:54:56.635Z,57.14
2018-07-15T06:55:56.434Z,57.33
2018-07-15T06:56:56.385Z,56.82
2018-07-15T06:57:56.359Z,56.62
2018-07-15T06:58:56.332Z,57.20
2018-07-15T06:59:57.004Z,57.11
2018-07-15T07:00:56.275Z,57.30
2018-07-15T07:01:56.240Z,56.34
2018-07-15T07:02:56.219Z,56.36
2018-07-15T07:03:56.183Z,56.36
2018-07-15T07:04:56.164Z,55.78
2018-07-15T07:05:56.131Z,55.20
2018-07-15T07:06:56.099Z,55.78
2018-07-15T07:07:56.077Z,56.16
2018-07-15T07:08:56.051Z,55.71
2018-07-15T07:09:56.020Z,55.22
2018-07-15T07:10:55.992Z,55.26
2018-07-15T07:11:55.964Z,54.48
2018-07-15T07:12:55.934Z,54.45
2018-07-15T07:13:55.909Z,55.62
2018-07-15T07:14:55.880Z,55.13
2018-07-15T07:15:55.852Z,54.48
2018-07-15T07:16:55.827Z,54.26
2018-07-15T07:17:55.794Z,54.09
2018-07-15T07:18:55.771Z,54.48
2018-07-15T07:19:55.749Z,54.31
2018-07-15T07:20:55.708Z,53.53
2018-07-15T07:21:55.683Z,53.73
2018-07-15T07:22:55.664Z,53.73
2018-07-15T07:23:55.858Z,54.11
2018-07-15T07:24:55.600Z,53.99
2018-07-15T07:25:55.575Z,53.05
2018-07-15T07:26:55.546Z,53.66
2018-07-15T07:27:55.530Z,53.95
2018-07-15T07:28:55.608Z,52.69
2018-07-15T07:29:55.467Z,52.11
2018-07-15T07:30:55.437Z,52.52
2018-07-15T07:31:55.696Z,52.52
2018-07-15T07:32:55.381Z,52.13
2018-07-15T07:33:55.353Z,51.09
2018-07-15T07:34:55.329Z,51.26
2018-07-15T07:35:55.293Z,50.96
2018-07-15T07:36:55.310Z,51.55
2018-07-15T07:37:55.247Z,51.14
2018-07-15T07:38:55.218Z,51.26
2018-07-15T07:39:55.191Z,50.60
2018-07-15T07:40:55.165Z,50.12
2018-07-15T07:41:55.133Z,50.12
2018-07-15T07:42:55.108Z,49.85
2018-07-15T07:43:55.080Z,49.85
2018-07-15T07:44:55.054Z,49.39
2018-07-15T07:45:55.029Z,48.61
2018-07-15T07:46:55.032Z,47.86
2018-07-15T07:47:54.970Z,48.25
2018-07-15T07:48:54.951Z,46.78
2018-07-15T07:49:54.925Z,46.78
2018-07-15T07:50:54.890Z,46.88
2018-07-15T07:51:54.873Z,47.05
2018-07-15T07:52:54.842Z,47.25
2018-07-15T07:53:54.817Z,46.88
2018-07-15T07:54:54.787Z,47.08
2018-07-15T07:55:54.759Z,46.69
2018-07-15T07:56:54.737Z,45.91
2018-07-15T07:57:54.713Z,46.42
2018-07-15T07:58:54.685Z,46.42
2018-07-15T07:59:54.658Z,46.42
2018-07-15T08:00:54.636Z,46.32
2018-07-15T08:01:54.625Z,45.67
2018-07-15T08:02:54.579Z,45.86
2018-07-15T08:03:54.554Z,46.73
2018-07-15T08:04:54.527Z,45.25
2018-07-15T08:05:54.500Z,45.28
2018-07-15T08:06:54.474Z,45.57
2018-07-15T08:07:54.447Z,46.05
2018-07-15T08:08:54.423Z,45.67
2018-07-15T08:09:54.398Z,45.39
2018-07-15T08:10:54.371Z,45.29
2018-07-15T08:11:54.343Z,44.62
2018-07-15T08:12:54.322Z,44.15
2018-07-15T08:13:54.297Z,44.24
2018-07-15T08:14:54.270Z,44.73
2018-07-15T08:15:54.243Z,44.34
2018-07-15T08:16:54.217Z,44.17
2018-07-15T08:17:54.194Z,43.39
2018-07-15T08:18:54.169Z,43.80
2018-07-15T08:19:54.153Z,42.61
2018-07-15T08:20:54.117Z,42.83
2018-07-15T08:21:54.089Z,42.73
2018-07-15T08:22:54.068Z,41.36
2018-07-15T08:23:54.043Z,41.95
2018-07-15T08:24:54.022Z,41.66
2018-07-15T08:25:53.993Z,41.36
2018-07-15T08:26:53.974Z,40.95
2018-07-15T08:27:53.935Z,42.12
2018-07-15T08:28:53.919Z,42.80
2018-07-15T08:29:53.895Z,42.61
2018-07-15T08:30:53.867Z,41.63
2018-07-15T08:31:53.839Z,42.63
2018-07-15T08:32:53.818Z,40.31
2018-07-15T08:33:53.805Z,39.92
2018-07-15T08:34:53.798Z,40.64
2018-07-15T08:35:53.745Z,39.67
2018-07-15T08:36:53.719Z,39.75
2018-07-15T08:37:53.693Z,39.08
2018-07-15T08:38:53.671Z,39.49
2018-07-15T08:39:53.656Z,38.32
2018-07-15T08:40:53.621Z,37.85
2018-07-15T08:41:53.597Z,35.42
2018-07-15T08:42:53.574Z,35.91
2018-07-15T08:43:53.550Z,35.22
2018-07-15T08:44:53.525Z,35.73
2018-07-15T08:45:53.534Z,35.44
2018-07-15T08:46:53.472Z,34.38
2018-07-15T08:47:53.463Z,33.89
2018-07-15T08:48:53.432Z,31.26
2018-07-15T08:49:53.407Z,34.21
2018-07-15T08:50:53.377Z,32.95
2018-07-15T08:51:53.361Z,32.48
2018-07-15T08:52:53.335Z,33.26
2018-07-15T08:53:53.320Z,33.07
2018-07-15T08:54:53.285Z,31.89
2018-07-15T08:55:53.256Z,32.46
2018-07-15T08:56:53.239Z,30.21
2018-07-15T08:57:53.213Z,29.13
2018-07-15T08:58:53.194Z,28.36
2018-07-15T08:59:53.163Z,28.77
2018-07-15T09:00:53.154Z,28.55
2018-07-15T09:01:53.115Z,28.17
2018-07-15T09:02:53.096Z,27.29
2018-07-15T09:03:53.067Z,27.70
2018-07-15T09:04:53.048Z,24.85
2018-07-15T09:05:53.025Z,26.70
2018-07-15T09:06:53.000Z,26.70
2018-07-15T09:07:52.986Z,27.37
2018-07-15T09:08:52.955Z,27.29
2018-07-15T09:09:52.927Z,27.29
2018-07-15T09:10:52.904Z,27.80
2018-07-15T09:11:52.880Z,27.71
2018-07-15T09:12:52.863Z,27.22
2018-07-15T09:13:52.841Z,24.87
2018-07-15T09:14:52.817Z,24.49
2018-07-15T09:15:52.785Z,24.02
2018-07-15T09:16:52.767Z,28.54
2018-07-15T09:17:52.775Z,28.06
2018-07-15T09:18:52.727Z,27.48
2018-07-15T09:19:53.192Z,26.70
2018-07-15T09:20:52.676Z,27.59
2018-07-15T09:21:52.678Z,26.42
2018-07-15T09:22:52.632Z,26.51
2018-07-15T09:23:52.605Z,26.13
2018-07-15T09:24:52.604Z,25.84
2018-07-15T09:25:52.560Z,25.26
2018-07-15T09:26:52.539Z,24.85
2018-07-15T09:27:52.517Z,25.14
2018-07-15T09:28:52.494Z,25.95
2018-07-15T09:29:52.472Z,25.95
2018-07-15T09:30:52.446Z,24.86
2018-07-15T09:31:52.424Z,24.06
2018-07-15T09:32:52.401Z,24.68
2018-07-15T09:33:52.377Z,24.08
2018-07-15T09:34:52.360Z,24.67
2018-07-15T09:35:52.333Z,23.39
2018-07-15T09:36:52.307Z,22.89
2018-07-15T09:37:52.294Z,22.89
2018-07-15T09:38:52.272Z,22.20
2018-07-15T09:39:52.252Z,22.89
2018-07-15T09:40:52.222Z,22.89
2018-07-15T09:41:52.202Z,23.49
2018-07-15T09:42:52.175Z,22.81
2018-07-15T09:43:52.152Z,23.60
2018-07-15T09:44:52.129Z,23.47
2018-07-15T09:45:52.147Z,23.17
2018-07-15T09:46:52.089Z,22.96
2018-07-15T09:47:52.064Z,23.27
2018-07-15T09:48:52.046Z,22.99
2018-07-15T09:49:52.021Z,22.41
2018-07-15T09:50:51.997Z,21.44
2018-07-15T09:51:51.974Z,22.91
2018-07-15T09:52:51.956Z,22.81
2018-07-15T09:53:51.949Z,22.52
2018-07-15T09:54:51.910Z,22.03
2018-07-15T09:55:51.895Z,21.83
2018-07-15T09:56:51.863Z,21.94
2018-07-15T09:57:51.840Z,21.83
2018-07-15T09:58:51.820Z,21.24
2018-07-15T09:59:51.806Z,20.86
2018-07-15T10:00:51.792Z,21.06
2018-07-15T10:01:51.755Z,20.48
2018-07-15T10:02:51.733Z,19.98
2018-07-15T10:03:51.711Z,19.58
2018-07-15T10:04:51.698Z,21.06
2018-07-15T10:05:51.673Z,20.48
2018-07-15T10:06:51.647Z,19.71
2018-07-15T10:07:51.632Z,20.49
2018-07-15T10:08:51.602Z,20.18
2018-07-15T10:09:51.589Z,19.20
2018-07-15T10:10:51.560Z,19.62
2018-07-15T10:11:51.541Z,19.73
2018-07-15T10:12:51.517Z,20.79
2018-07-15T10:13:51.498Z,21.69
2018-07-15T10:14:51.480Z,20.53
2018-07-15T10:15:51.447Z,19.92
2018-07-15T10:16:51.428Z,19.23
2018-07-15T10:17:51.411Z,19.44
2018-07-15T10:18:52.223Z,19.26
2018-07-15T10:19:51.370Z,19.46
2018-07-15T10:20:51.343Z,19.45
2018-07-15T10:21:51.326Z,19.35
2018-07-15T10:22:51.317Z,19.48
2018-07-15T10:23:51.281Z,19.46
2018-07-15T10:24:51.256Z,19.35
2018-07-15T10:25:51.236Z,19.35
2018-07-15T10:26:51.221Z,19.74
2018-07-15T10:27:51.201Z,18.76
2018-07-15T10:28:51.210Z,19.17
2018-07-15T10:29:51.160Z,18.07
2018-07-15T10:30:51.160Z,19.35
2018-07-15T10:31:51.117Z,18.68
2018-07-15T10:32:51.097Z,18.29
2018-07-15T10:33:51.071Z,17.58
2018-07-15T10:34:51.057Z,16.98
2018-07-15T10:35:51.032Z,16.97
2018-07-15T10:36:51.018Z,17.07
2018-07-15T10:37:50.987Z,18.55
2018-07-15T10:38:50.975Z,17.66
2018-07-15T10:39:50.951Z,16.78
2018-07-15T10:40:50.929Z,17.60
2018-07-15T10:41:50.909Z,16.50
2018-07-15T10:42:50.900Z,16.81
2018-07-15T10:43:50.869Z,16.42
2018-07-15T10:44:50.849Z,16.22
2018-07-15T10:45:50.836Z,16.52
2018-07-15T10:46:50.805Z,15.94
2018-07-15T10:47:50.792Z,16.22
2018-07-15T10:48:50.768Z,16.93
2018-07-15T10:49:50.750Z,16.33
2018-07-15T10:50:50.817Z,16.03
2018-07-15T10:51:50.745Z,16.82
2018-07-15T10:52:50.712Z,16.52
2018-07-15T10:53:50.669Z,16.91
2018-07-15T10:54:50.641Z,16.22
2018-07-15T10:55:50.623Z,16.53
2018-07-15T10:56:50.610Z,15.34
2018-07-15T10:57:50.596Z,15.16
2018-07-15T10:58:50.584Z,15.26
2018-07-15T10:59:50.543Z,15.47
2018-07-15T11:00:50.579Z,15.05
2018-07-15T11:01:50.501Z,15.66
2018-07-15T11:02:50.487Z,14.67
2018-07-15T11:03:50.467Z,15.53
2018-07-15T11:04:50.447Z,15.45
2018-07-15T11:05:50.428Z,14.87
2018-07-15T11:06:50.399Z,14.95
2018-07-15T11:07:50.381Z,14.36
2018-07-15T11:08:50.363Z,15.26
2018-07-15T11:09:50.346Z,13.97
2018-07-15T11:10:50.325Z,14.56
2018-07-15T11:11:50.416Z,14.15
2018-07-15T11:12:50.283Z,14.75
2018-07-15T11:13:50.263Z,14.14
2018-07-15T11:14:50.270Z,14.06
2018-07-15T11:15:50.229Z,13.44
2018-07-15T11:16:50.212Z,14.23
2018-07-15T11:17:50.189Z,14.13
2018-07-15T11:18:50.166Z,14.12
2018-07-15T11:19:50.156Z,14.63
2018-07-15T11:20:50.123Z,13.64
2018-07-15T11:21:50.121Z,14.95
2018-07-15T11:22:50.140Z,14.36
2018-07-15T11:23:50.072Z,13.67
2018-07-15T11:24:50.053Z,13.27
2018-07-15T11:25:50.034Z,13.60
2018-07-15T11:26:50.010Z,12.40
2018-07-15T11:27:49.997Z,11.90
2018-07-15T11:28:49.978Z,12.30
2018-07-15T11:29:49.952Z,12.30
2018-07-15T11:30:49.989Z,12.12
2018-07-15T11:31:49.909Z,11.90
2018-07-15T11:32:49.894Z,11.70
2018-07-15T11:33:49.947Z,11.71
2018-07-15T11:34:49.860Z,12.09
2018-07-15T11:35:49.955Z,11.81
2018-07-15T11:36:49.822Z,11.99
2018-07-15T11:37:50.100Z,11.69
2018-07-15T11:38:49.785Z,12.99
2018-07-15T11:39:49.774Z,12.48
2018-07-15T11:40:49.745Z,11.88
2018-07-15T11:41:49.725Z,12.78
2018-07-15T11:42:49.704Z,12.87
2018-07-15T11:43:49.692Z,12.37
2018-07-15T11:44:49.667Z,13.46
2018-07-15T11:45:49.650Z,12.96
2018-07-15T11:46:49.646Z,13.74
2018-07-15T11:47:49.614Z,13.56
2018-07-15T11:48:49.591Z,12.66
2018-07-15T11:49:49.572Z,12.87
2018-07-15T11:50:49.551Z,11.68
2018-07-15T11:51:49.535Z,12.26
2018-07-15T11:52:49.556Z,11.77
2018-07-15T11:53:49.490Z,10.98
2018-07-15T11:54:49.480Z,11.59
2018-07-15T11:55:49.455Z,11.49
2018-07-15T11:56:49.440Z,11.80
2018-07-15T11:57:49.422Z,11.00
2018-07-15T11:58:49.400Z,11.11
2018-07-15T11:59:49.385Z,10.30
2018-07-15T12:00:49.361Z,10.90
2018-07-15T12:01:49.430Z,10.80
2018-07-15T12:02:49.324Z,11.29
2018-07-15T12:03:49.299Z,11.08
2018-07-15T12:04:49.284Z,12.08
2018-07-15T12:05:49.272Z,11.78
2018-07-15T12:06:49.242Z,11.88
2018-07-15T12:07:49.234Z,11.08
2018-07-15T12:08:49.209Z,11.10
2018-07-15T12:09:49.193Z,10.61
2018-07-15T12:10:49.165Z,10.41
2018-07-15T12:11:49.160Z,9.52
2018-07-15T12:12:49.129Z,9.82
2018-07-15T12:13:49.114Z,9.31
2018-07-15T12:14:49.094Z,9.92
2018-07-15T12:15:49.070Z,9.01
2018-07-15T12:16:49.078Z,9.92
2018-07-15T12:17:49.040Z,9.12
2018-07-15T12:18:49.018Z,10.11
2018-07-15T12:19:48.999Z,10.99
2018-07-15T12:20:48.976Z,10.38
2018-07-15T12:21:48.961Z,12.06
2018-07-15T12:22:48.942Z,11.07
2018-07-15T12:23:48.921Z,12.06
2018-07-15T12:24:48.908Z,11.96
2018-07-15T12:25:48.888Z,11.07
2018-07-15T12:26:48.861Z,10.66
2018-07-15T12:27:48.841Z,11.07
2018-07-15T12:28:48.827Z,11.26
2018-07-15T12:29:48.807Z,11.08
2018-07-15T12:30:48.788Z,10.89
2018-07-15T12:31:48.778Z,10.89
2018-07-15T12:32:48.744Z,11.29
2018-07-15T12:33:48.732Z,10.58
2018-07-15T12:34:48.704Z,9.59
2018-07-15T12:35:48.690Z,10.19
2018-07-15T12:36:48.667Z,9.79
2018-07-15T12:37:48.648Z,9.59
2018-07-15T12:38:48.658Z,9.78
2018-07-15T12:39:48.608Z,9.69
2018-07-15T12:40:48.587Z,9.59
2018-07-15T12:41:48.570Z,10.59
2018-07-15T12:42:48.551Z,10.39
2018-07-15T12:43:48.526Z,9.59
2018-07-15T12:44:48.507Z,10.18
2018-07-15T12:45:48.486Z,11.06
2018-07-15T12:46:48.486Z,11.07
2018-07-15T12:47:48.451Z,10.68
2018-07-15T12:48:48.430Z,10.27
2018-07-15T12:49:48.407Z,10.86
2018-07-15T12:50:48.720Z,10.77
2018-07-15T12:51:48.728Z,11.56
2018-07-15T12:52:48.352Z,11.16